Putnam County Airport


Codes: KOWX/
Name: Putnam County Airport
City: Ottawa
Country: United States
Elevation: 764 ft.

Photos at Putnam County Airport


   Photos courtesy of SpottingLog. You can add your own sightings and photos by signing up for a free trial today.



No photos found.

Weather at Putnam County Airport


Time (UTC)DescriptionTempratureWindCloud coverageVisibilityPressureHumidity
16-Jun-2024 12:00Overcast Clouds16°C7 mph, SE99%10000m1019hPa72%
16-Jun-2024 15:00Broken Clouds21°C9 mph, S62%10000m1018hPa58%
16-Jun-2024 18:00Scattered Clouds28°C9 mph, S41%10000m1017hPa39%
16-Jun-2024 21:00Few Clouds29°C9 mph, S17%10000m1016hPa40%
17-Jun-2024 00:00Clear Sky25°C7 mph, S10%10000m1014hPa67%
17-Jun-2024 03:00Clear Sky21°C9 mph, S0%10000m1015hPa73%
17-Jun-2024 06:00Clear Sky21°C9 mph, S0%10000m1015hPa80%
17-Jun-2024 09:00Clear Sky21°C9 mph, S0%10000m1016hPa89%
17-Jun-2024 12:00Light Rain23°C9 mph, SW1%10000m1017hPa87%
17-Jun-2024 15:00Broken Clouds29°C11 mph, SW58%10000m1017hPa66%
17-Jun-2024 18:00Scattered Clouds32°C13 mph, SW31%10000m1016hPa52%
17-Jun-2024 21:00Clear Sky33°C13 mph, SW6%10000m1016hPa47%
18-Jun-2024 00:00Clear Sky29°C7 mph, S5%10000m1015hPa69%
18-Jun-2024 03:00Clear Sky25°C7 mph, S2%10000m1018hPa79%
18-Jun-2024 06:00Broken Clouds24°C7 mph, SW51%10000m1018hPa84%
18-Jun-2024 09:00Overcast Clouds23°C7 mph, SW100%10000m1019hPa86%
18-Jun-2024 12:00Overcast Clouds24°C7 mph, SW100%10000m1020hPa82%
18-Jun-2024 15:00Overcast Clouds29°C9 mph, S100%10000m1020hPa61%
18-Jun-2024 18:00Overcast Clouds31°C9 mph, S100%10000m1020hPa55%
18-Jun-2024 21:00Overcast Clouds31°C7 mph, SW100%10000m1019hPa54%
19-Jun-2024 00:00Light Rain28°C9 mph, S100%10000m1020hPa72%
19-Jun-2024 03:00Overcast Clouds25°C7 mph, S100%10000m1020hPa77%
19-Jun-2024 06:00Overcast Clouds23°C4 mph, S99%10000m1020hPa82%
19-Jun-2024 09:00Overcast Clouds23°C4 mph, SW100%10000m1022hPa83%
19-Jun-2024 12:00Light Rain24°C4 mph, W100%10000m1024hPa81%
19-Jun-2024 15:00Overcast Clouds29°C4 mph, NW100%10000m1024hPa64%
19-Jun-2024 18:00Light Rain32°C2 mph, SE100%10000m1023hPa52%
19-Jun-2024 21:00Overcast Clouds32°C2 mph, S100%10000m1022hPa53%
20-Jun-2024 00:00Light Rain28°C0 mph, NW100%10000m1023hPa71%
20-Jun-2024 03:00Light Rain24°C2 mph, NE76%10000m1024hPa83%
20-Jun-2024 06:00Overcast Clouds23°C2 mph, NE86%10000m1024hPa86%
20-Jun-2024 09:00Overcast Clouds22°C4 mph, NE100%10000m1024hPa90%
20-Jun-2024 12:00Broken Clouds25°C2 mph, SE72%10000m1025hPa82%
20-Jun-2024 15:00Light Rain30°C2 mph, N1%10000m1025hPa62%
20-Jun-2024 18:00Few Clouds34°C0 mph, N19%10000m1024hPa42%
20-Jun-2024 21:00Clear Sky34°C0 mph, SE0%10000m1022hPa36%
21-Jun-2024 00:00Scattered Clouds29°C9 mph, NE49%10000m1022hPa66%
21-Jun-2024 03:00Overcast Clouds26°C7 mph, E100%10000m1023hPa76%
21-Jun-2024 06:00Light Rain25°C4 mph, E100%10000m1023hPa81%
21-Jun-2024 09:00Light Rain25°C4 mph, SE100%10000m1022hPa79%